Time;durP1;ratioP1;P1;durP2;ratioP2;P2;SDS_P1;SDS_P2;PMS_P1;PMS_P2;Temp;Humidity;BMP_temperature;BMP_pressure;BME280_temperature;BME280_humidity;BME280_pressure;Samples;Min_cycle;Max_cycle;Signal;HPM_P1;HPM_P2
2021/12/05 00:17:10;;;;;;;;;;;;;;;3.26;49.79;96658.73;1687725;82;24443;-82
2021/12/05 00:22:18;;;;;;;;;;;;;;;3.28;49.98;96649.91;1716144;82;25368;-81
2021/12/05 00:24:47;;;;;;;;;;;;;;;3.27;50.06;96648.75;1711089;82;22044;-82
2021/12/05 00:27:19;;;;;;;;;;;;;;;3.26;50.16;96658.73;1716127;81;26047;-81
2021/12/05 00:29:54;;;;;;;;;;;;;;;3.25;50.21;96658.36;1713886;81;24480;-81
2021/12/05 00:32:21;;;;;;;;;;;;;;;3.25;50.32;96660.48;1715699;81;20178;-81
2021/12/05 00:34:59;;;;;;;;;;;;;;;3.25;50.39;96659.66;1715355;81;25496;-81
2021/12/05 00:45:39;;;;;;;;;;;;;;;3.27;50.78;96666.84;1722304;82;20275;-82
2021/12/05 00:47:56;;;;;;;;;;;;;;;3.28;50.85;96668.01;1730224;81;24880;-82
2021/12/05 01:14:06;;;;;;;;;;;;;;;2.90;52.13;96719.71;1676798;83;24888;-82
2021/12/05 01:16:22;;;;;;;;;;;;;;;2.85;52.31;96726.94;1635067;86;22272;-82
2021/12/05 01:18:48;;;;;;;;;;;;;;;2.84;52.52;96727.03;1725214;81;26013;-82
2021/12/05 01:21:17;;;;;;;;;;;;;;;2.76;52.73;96727.56;1711685;80;24322;-82
2021/12/05 01:26:19;;;;;;;;;;;;;;;2.69;53.15;96726.30;1720913;82;24757;-82
2021/12/05 01:34:38;;;;;;;;;;;;;;;2.71;53.83;96714.59;1704545;82;25182;-82
2021/12/05 01:37:05;;;;;;;;;;;;;;;2.73;54.08;96717.88;1710618;82;20441;-82
2021/12/05 01:45:21;;;;;;;;;;;;;;;2.78;54.78;96716.64;1687450;82;26125;-82
2021/12/05 01:50:31;;;;;;;;;;;;;;;2.63;55.23;96702.16;1723076;81;20170;-82
2021/12/05 01:55:40;;;;;;;;;;;;;;;2.64;55.67;96703.00;1701232;82;21364;-83
2021/12/05 01:58:16;;;;;;;;;;;;;;;2.68;55.90;96696.23;1746160;80;22797;-82
2021/12/05 02:08:59;;;;;;;;;;;;;;;2.80;56.87;96691.55;1735457;81;22024;-83
2021/12/05 02:11:45;;;;;;;;;;;;;;;2.83;57.12;96688.78;1746595;81;26112;-83
2021/12/05 02:29:31;;;;;;;;;;;;;;;2.81;57.54;96688.05;1751444;81;20293;-83
2021/12/05 02:43:28;;;;;;;;;;;;;;;2.50;59.33;96660.03;1703331;83;20653;-82
2021/12/05 02:45:53;;;;;;;;;;;;;;;2.47;59.51;96650.72;1706018;82;24876;-83
2021/12/05 02:48:22;;;;;;;;;;;;;;;2.42;59.68;96650.20;1735048;81;21969;-83
2021/12/05 02:50:48;;;;;;;;;;;;;;;2.36;59.82;96648.02;1711760;83;26702;-83
2021/12/05 02:53:20;;;;;;;;;;;;;;;2.34;60.00;96647.77;1726502;81;20241;-83
2021/12/05 02:55:46;;;;;;;;;;;;;;;2.28;60.16;96650.75;1695087;83;20350;-83
2021/12/05 02:58:33;;;;;;;;;;;;;;;2.28;60.31;96645.13;1682579;84;24718;-83
2021/12/05 03:03:33;;;;;;;;;;;;;;;2.35;60.69;96656.67;1748867;81;26015;-82
2021/12/05 03:06:05;;;;;;;;;;;;;;;2.37;60.85;96654.84;1749695;80;24341;-83
2021/12/05 03:08:29;;;;;;;;;;;;;;;2.38;61.03;96647.92;1738578;80;20204;-83
2021/12/05 03:10:57;;;;;;;;;;;;;;;2.39;61.20;96645.70;1749346;81;25643;-82
2021/12/05 03:13:24;;;;;;;;;;;;;;;2.40;61.36;96654.62;1745243;81;21989;-83
2021/12/05 03:15:50;;;;;;;;;;;;;;;2.43;61.51;96653.61;1747745;81;26126;-83
2021/12/05 03:18:16;;;;;;;;;;;;;;;2.45;61.68;96650.47;1751527;81;24498;-83
2021/12/05 03:20:42;;;;;;;;;;;;;;;2.40;61.80;96648.66;1750686;81;20211;-83
2021/12/05 03:23:08;;;;;;;;;;;;;;;2.35;61.95;96646.35;1749570;81;20270;-83
2021/12/05 03:25:35;;;;;;;;;;;;;;;2.30;62.09;96650.16;1746128;81;21969;-83
2021/12/05 03:28:02;;;;;;;;;;;;;;;2.29;62.22;96654.49;1743527;81;26087;-83
2021/12/05 03:30:29;;;;;;;;;;;;;;;2.27;62.38;96651.66;1746913;81;24380;-83
2021/12/05 03:32:55;;;;;;;;;;;;;;;2.24;62.52;96657.01;1751333;80;20329;-83
2021/12/05 03:35:23;;;;;;;;;;;;;;;2.21;62.66;96654.18;1744889;81;25527;-82
2021/12/05 03:37:52;;;;;;;;;;;;;;;2.19;62.83;96650.86;1747502;81;23107;-82
2021/12/05 03:40:20;;;;;;;;;;;;;;;2.17;62.97;96655.77;1750963;81;25996;-83
2021/12/05 03:42:47;;;;;;;;;;;;;;;2.14;63.12;96659.83;1752305;81;25314;-82
2021/12/05 03:45:15;;;;;;;;;;;;;;;2.16;63.30;96661.86;1754180;81;20411;-82
2021/12/05 03:47:41;;;;;;;;;;;;;;;2.17;63.44;96663.52;1746040;79;24824;-83
2021/12/05 03:50:09;;;;;;;;;;;;;;;2.16;63.61;96661.86;1738742;81;22060;-83
2021/12/05 03:52:35;;;;;;;;;;;;;;;2.15;63.78;96664.06;1741239;81;25978;-82
2021/12/05 03:55:02;;;;;;;;;;;;;;;2.14;63.93;96659.83;1736735;81;24553;-82
2021/12/05 03:57:28;;;;;;;;;;;;;;;2.10;64.09;96661.33;1743605;81;20284;-82
2021/12/05 03:59:55;;;;;;;;;;;;;;;2.14;64.25;96663.23;1749615;81;25478;-82
2021/12/05 04:02:21;;;;;;;;;;;;;;;2.14;64.40;96664.53;1745835;81;22016;-82
2021/12/05 04:04:49;;;;;;;;;;;;;;;2.14;64.54;96663.23;1752554;81;25987;-82
2021/12/05 04:07:16;;;;;;;;;;;;;;;2.17;64.69;96658.36;1746380;81;24641;-82
2021/12/05 04:09:43;;;;;;;;;;;;;;;2.17;64.85;96654.48;1751977;81;20252;-82
2021/12/05 04:12:10;;;;;;;;;;;;;;;2.22;65.00;96658.42;1742786;82;25478;-82
2021/12/05 04:14:41;;;;;;;;;;;;;;;2.19;65.16;96661.64;1732438;81;23737;-82
2021/12/05 04:17:08;;;;;;;;;;;;;;;2.17;65.31;96670.80;1755375;81;26041;-82
2021/12/05 04:19:36;;;;;;;;;;;;;;;2.19;65.44;96671.97;1754001;80;24507;-82
2021/12/05 04:22:04;;;;;;;;;;;;;;;2.21;65.57;96679.16;1751251;80;20238;-82
2021/12/05 04:24:30;;;;;;;;;;;;;;;2.22;65.72;96679.06;1753013;81;24788;-82
2021/12/05 04:26:57;;;;;;;;;;;;;;;2.27;65.88;96680.05;1755134;81;21924;-82
2021/12/05 04:29:23;;;;;;;;;;;;;;;2.31;66.01;96673.76;1747690;81;26105;-81
2021/12/05 04:31:49;;;;;;;;;;;;;;;2.33;66.16;96672.75;1738525;81;24572;-82
2021/12/05 04:34:16;;;;;;;;;;;;;;;2.33;66.26;96675.33;1742391;81;20275;-81
2021/12/05 04:36:43;;;;;;;;;;;;;;;2.30;66.40;96674.22;1753733;81;25195;-81
2021/12/05 04:39:11;;;;;;;;;;;;;;;2.26;66.50;96670.65;1752890;81;22084;-82
2021/12/05 04:41:38;;;;;;;;;;;;;;;2.29;66.63;96672.56;1746910;81;26036;-82
2021/12/05 04:44:08;;;;;;;;;;;;;;;2.32;66.78;96667.67;1752923;81;24464;-82
2021/12/05 04:46:34;;;;;;;;;;;;;;;2.29;66.90;96676.92;1750840;81;20333;-82
2021/12/05 04:49:03;;;;;;;;;;;;;;;2.27;67.00;96677.47;1752885;81;24785;-82
2021/12/05 04:51:31;;;;;;;;;;;;;;;2.20;67.14;96676.20;1751346;81;21582;-82
2021/12/05 04:53:57;;;;;;;;;;;;;;;2.16;67.25;96676.88;1745882;80;26060;-82
2021/12/05 04:56:23;;;;;;;;;;;;;;;2.17;67.37;96678.53;1753396;80;24543;-83
2021/12/05 04:58:50;;;;;;;;;;;;;;;2.16;67.51;96681.20;1748081;81;20265;-82
2021/12/05 05:01:16;;;;;;;;;;;;;;;2.14;67.63;96680.47;1756558;81;24625;-83
2021/12/05 05:03:42;;;;;;;;;;;;;;;2.17;67.76;96682.87;1751904;81;21882;-83
2021/12/05 05:06:14;;;;;;;;;;;;;;;2.15;67.91;96686.00;1748225;81;26005;-83
2021/12/05 05:08:39;;;;;;;;;;;;;;;2.15;68.03;96686.83;1748188;81;24464;-83
2021/12/05 05:11:07;;;;;;;;;;;;;;;2.13;68.19;96690.45;1749802;81;20159;-83
2021/12/05 05:13:35;;;;;;;;;;;;;;;2.09;68.28;96697.08;1741993;81;25562;-83
2021/12/05 05:16:03;;;;;;;;;;;;;;;2.08;68.39;96704.45;1746253;81;22042;-82
2021/12/05 05:18:48;;;;;;;;;;;;;;;2.07;68.53;96709.23;1751387;80;26050;-82
2021/12/05 05:29:20;;;;;;;;;;;;;;;2.03;69.07;96728.88;1736531;81;22238;-83
2021/12/05 05:40:46;;;;;;;;;;;;;;;2.20;69.65;96723.95;1767327;80;24893;-83
2021/12/05 05:45:21;;;;;;;;;;;;;;;2.22;69.91;96738.42;1710459;83;26204;-82
2021/12/05 05:50:00;;;;;;;;;;;;;;;2.16;70.11;96742.67;1750518;81;20262;-82
2021/12/05 05:52:28;;;;;;;;;;;;;;;2.17;70.22;96741.76;1684427;84;24836;-82
2021/12/05 05:54:57;;;;;;;;;;;;;;;2.18;70.34;96748.58;1714084;83;22079;-83
2021/12/05 06:00:00;;;;;;;;;;;;;;;2.20;70.55;96753.62;1646790;85;20157;-83
2021/12/05 06:05:05;;;;;;;;;;;;;;;2.22;70.78;96759.06;1743218;81;24836;-83
2021/12/05 06:07:33;;;;;;;;;;;;;;;2.24;70.90;96762.36;1708628;83;22114;-84
2021/12/05 06:09:59;;;;;;;;;;;;;;;2.30;71.02;96755.98;1742480;81;25998;-83
2021/12/05 06:12:25;;;;;;;;;;;;;;;2.30;71.12;96763.27;1737871;81;25164;-83
2021/12/05 06:14:51;;;;;;;;;;;;;;;2.28;71.20;96763.01;1751286;81;20278;-84
2021/12/05 06:17:18;;;;;;;;;;;;;;;2.28;71.29;96769.46;1755017;81;25623;-84
2021/12/05 06:19:44;;;;;;;;;;;;;;;2.33;71.39;96771.28;1750683;81;22807;-84
2021/12/05 06:22:10;;;;;;;;;;;;;;;2.34;71.49;96776.36;1753271;81;26838;-83
2021/12/05 06:24:36;;;;;;;;;;;;;;;2.34;71.57;96778.94;1740711;81;24542;-83
2021/12/05 06:27:02;;;;;;;;;;;;;;;2.35;71.67;96783.61;1737749;81;20318;-82
2021/12/05 06:29:35;;;;;;;;;;;;;;;2.37;71.77;96788.23;1749116;81;24787;-83
2021/12/05 06:32:20;;;;;;;;;;;;;;;2.38;71.86;96789.42;1745942;81;22888;-83
2021/12/05 06:48:00;;;;;;;;;;;;;;;2.48;72.41;96812.90;1741112;81;26078;-84
2021/12/05 06:50:33;;;;;;;;;;;;;;;2.49;72.48;96819.27;1751919;81;20911;-84
2021/12/05 06:52:59;;;;;;;;;;;;;;;2.51;72.56;96825.59;1743768;81;20596;-84
2021/12/05 06:55:34;;;;;;;;;;;;;;;2.49;72.65;96828.77;1740772;81;20798;-83
2021/12/05 06:58:00;;;;;;;;;;;;;;;2.45;72.70;96832.01;1737164;82;21979;-83
2021/12/05 07:00:27;;;;;;;;;;;;;;;2.45;72.77;96838.47;1753450;80;25932;-85
2021/12/05 07:02:53;;;;;;;;;;;;;;;2.43;72.84;96840.77;1738175;81;25207;-84
2021/12/05 07:08:04;;;;;;;;;;;;;;;2.41;72.96;96845.18;1749179;80;24800;-83
2021/12/05 07:10:34;;;;;;;;;;;;;;;2.37;73.06;96841.14;1739099;81;22092;-83
2021/12/05 07:13:35;;;;;;;;;;;;;;;2.43;73.16;96849.34;1745495;81;26113;-83
2021/12/05 07:15:45;;;;;;;;;;;;;;;2.47;73.24;96850.80;1750154;81;24490;-83
2021/12/05 07:21:03;;;;;;;;;;;;;;;2.43;73.40;96846.75;1755388;81;25509;-85
2021/12/05 07:25:54;;;;;;;;;;;;;;;2.47;73.57;96855.95;1680283;83;26040;-83
2021/12/05 07:42:09;;;;;;;;;;;;;;;2.66;74.14;96856.93;1711774;83;24554;-83
2021/12/05 07:44:32;;;;;;;;;;;;;;;2.68;74.23;96858.09;1671832;84;20251;-83
2021/12/05 07:46:59;;;;;;;;;;;;;;;2.69;74.28;96860.59;1701986;82;25626;-83
2021/12/05 07:49:25;;;;;;;;;;;;;;;2.71;74.36;96860.05;1676834;84;22160;-83
2021/12/05 07:51:51;;;;;;;;;;;;;;;2.70;74.42;96859.67;1667971;84;26159;-84
2021/12/05 07:54:37;;;;;;;;;;;;;;;2.73;74.45;96858.17;1669561;85;25424;-84
2021/12/05 07:57:24;;;;;;;;;;;;;;;2.78;74.51;96859.20;1704026;83;20319;-83
2021/12/05 08:15:57;;;;;;;;;;;;;;;2.69;74.84;96885.59;1753358;81;22855;-83
2021/12/05 08:18:13;;;;;;;;;;;;;;;2.68;74.91;96887.80;1752580;81;26010;-83
2021/12/05 08:20:40;;;;;;;;;;;;;;;2.64;74.97;96886.34;1751074;81;24437;-83
2021/12/05 08:23:14;;;;;;;;;;;;;;;2.61;75.01;96885.26;1752779;80;20691;-83
2021/12/05 08:25:38;;;;;;;;;;;;;;;2.66;75.12;96890.50;1748015;81;24962;-83
2021/12/05 08:30:44;;;;;;;;;;;;;;;2.69;75.30;96885.13;1741493;81;22116;-83
2021/12/05 08:33:34;;;;;;;;;;;;;;;2.68;75.35;96888.63;1750211;81;25244;-83
2021/12/05 08:36:16;;;;;;;;;;;;;;;2.68;75.43;96893.80;1752391;81;20147;-83
2021/12/05 08:44:40;;;;;;;;;;;;;;;2.70;75.65;96893.25;1748243;81;26779;-82
2021/12/05 10:10:34;;;;;;;;;;;;;;;2.93;78.03;96941.72;1727404;81;20510;-83
2021/12/05 10:13:08;;;;;;;;;;;;;;;2.89;78.10;96932.48;1723497;81;24807;-82
2021/12/05 10:15:54;;;;;;;;;;;;;;;2.90;78.15;96941.06;1739066;81;22076;-82
2021/12/05 10:26:38;;;;;;;;;;;;;;;2.91;78.42;96950.02;1730807;81;24816;-83
2021/12/05 10:37:05;;;;;;;;;;;;;;;3.04;78.74;96949.25;1738208;82;20253;-83
2021/12/05 10:39:35;;;;;;;;;;;;;;;3.04;78.82;96955.70;1732725;80;24863;-83
2021/12/05 10:42:23;;;;;;;;;;;;;;;3.04;78.90;96954.41;1749527;80;22057;-83
2021/12/05 10:44:33;;;;;;;;;;;;;;;3.02;78.95;96951.92;1742943;81;26028;-82
2021/12/05 10:47:01;;;;;;;;;;;;;;;3.06;79.02;96951.25;1734213;81;25350;-83
2021/12/05 10:49:30;;;;;;;;;;;;;;;3.09;79.08;96954.95;1743651;81;20460;-83
2021/12/05 10:51:58;;;;;;;;;;;;;;;3.09;79.14;96965.29;1745568;80;20155;-83
2021/12/05 10:54:26;;;;;;;;;;;;;;;3.11;79.20;96961.66;1737416;80;22054;-83
2021/12/05 10:56:58;;;;;;;;;;;;;;;3.12;79.29;96967.20;1743297;80;26023;-83
2021/12/05 10:59:29;;;;;;;;;;;;;;;3.11;79.33;96972.49;1725661;81;24435;-83
2021/12/05 11:01:55;;;;;;;;;;;;;;;3.11;79.37;96968.62;1745631;80;20240;-83
2021/12/05 11:04:29;;;;;;;;;;;;;;;3.12;79.43;96972.83;1738815;80;24812;-83
2021/12/05 11:06:56;;;;;;;;;;;;;;;3.14;79.47;96976.99;1739675;81;22890;-83
2021/12/05 11:09:27;;;;;;;;;;;;;;;3.18;79.51;96977.62;1746054;80;25831;-83
2021/12/05 11:12:02;;;;;;;;;;;;;;;3.19;79.58;96968.48;1742253;81;25289;-83
2021/12/05 11:14:33;;;;;;;;;;;;;;;3.19;79.61;96974.95;1736341;81;20171;-83
2021/12/05 11:17:07;;;;;;;;;;;;;;;3.20;79.68;96975.31;1756024;80;24926;-83
2021/12/05 11:19:37;;;;;;;;;;;;;;;3.20;79.71;96979.66;1727959;81;22639;-83
2021/12/05 11:22:10;;;;;;;;;;;;;;;3.23;79.75;96974.27;1730801;81;26084;-83
2021/12/05 11:24:38;;;;;;;;;;;;;;;3.25;79.80;96973.27;1745301;81;24510;-83
2021/12/05 11:27:18;;;;;;;;;;;;;;;3.26;79.85;96976.68;1725883;81;20180;-84
2021/12/05 11:29:49;;;;;;;;;;;;;;;3.28;79.87;96985.98;1713289;81;24811;-83
2021/12/05 11:32:18;;;;;;;;;;;;;;;3.29;79.90;96980.34;1736096;81;22109;-83
2021/12/05 11:34:45;;;;;;;;;;;;;;;3.27;79.93;96980.44;1740052;82;26038;-83
2021/12/05 11:37:11;;;;;;;;;;;;;;;3.29;79.96;96981.64;1737888;80;25444;-83
2021/12/05 11:39:37;;;;;;;;;;;;;;;3.28;79.98;96982.56;1725464;81;20284;-84
2021/12/05 11:42:05;;;;;;;;;;;;;;;3.28;80.00;96989.86;1741976;81;25652;-84
2021/12/05 11:44:31;;;;;;;;;;;;;;;3.27;80.02;96988.69;1731869;81;22774;-83
2021/12/05 11:46:59;;;;;;;;;;;;;;;3.31;80.06;96996.14;1739596;82;25999;-84
2021/12/05 11:49:25;;;;;;;;;;;;;;;3.31;80.11;96988.39;1739669;80;25383;-84
2021/12/05 11:51:53;;;;;;;;;;;;;;;3.33;80.16;96987.80;1742759;80;20265;-83
2021/12/05 11:54:26;;;;;;;;;;;;;;;3.34;80.21;96992.05;1721316;81;20556;-84
2021/12/05 11:57:00;;;;;;;;;;;;;;;3.32;80.23;96996.52;1737589;81;22088;-83
2021/12/05 11:59:28;;;;;;;;;;;;;;;3.35;80.24;96999.35;1739404;81;26067;-83
2021/12/05 12:01:56;;;;;;;;;;;;;;;3.40;80.27;96990.83;1736021;80;24436;-83
2021/12/05 12:04:24;;;;;;;;;;;;;;;3.40;80.33;96983.53;1734383;81;20228;-83
2021/12/05 12:07:09;;;;;;;;;;;;;;;3.40;80.36;96977.07;1740710;81;24791;-83
2021/12/05 12:09:38;;;;;;;;;;;;;;;3.46;80.40;96981.85;1738254;81;22059;-83
2021/12/05 12:12:03;;;;;;;;;;;;;;;3.47;80.43;96977.88;1740641;80;26020;-83
2021/12/05 12:14:30;;;;;;;;;;;;;;;3.50;80.45;96975.09;1738625;80;24561;-83
2021/12/05 12:16:57;;;;;;;;;;;;;;;3.50;80.49;96969.91;1738156;80;20248;-83
2021/12/05 12:19:25;;;;;;;;;;;;;;;3.53;80.52;96975.36;1734571;80;20156;-83
2021/12/05 12:21:57;;;;;;;;;;;;;;;3.56;80.54;96978.56;1742171;82;22064;-83
2021/12/05 12:24:19;;;;;;;;;;;;;;;3.56;80.55;96968.69;1699962;82;26032;-83
2021/12/05 12:26:46;;;;;;;;;;;;;;;3.59;80.54;96971.09;1681630;83;25676;-83
2021/12/05 12:29:22;;;;;;;;;;;;;;;3.63;80.54;96968.66;1692630;84;20236;-83
2021/12/05 12:31:49;;;;;;;;;;;;;;;3.65;80.57;96966.34;1721485;82;24757;-83
2021/12/05 12:34:17;;;;;;;;;;;;;;;3.71;80.59;96969.80;1740189;82;22068;-83
2021/12/05 12:36:48;;;;;;;;;;;;;;;3.73;80.61;96969.24;1739914;81;25997;-83
2021/12/05 12:39:20;;;;;;;;;;;;;;;3.77;80.63;96968.56;1742320;81;21536;-82
2021/12/05 12:42:04;;;;;;;;;;;;;;;3.85;80.71;96969.36;1744739;80;20247;-83
2021/12/05 12:44:34;;;;;;;;;;;;;;;3.87;80.74;96970.11;1742894;81;24755;-82
2021/12/05 12:47:05;;;;;;;;;;;;;;;3.94;80.77;96964.86;1737580;81;22057;-83
2021/12/05 12:49:34;;;;;;;;;;;;;;;3.99;80.80;96967.50;1740868;80;26721;-83
2021/12/05 12:52:05;;;;;;;;;;;;;;;4.07;80.82;96960.53;1738140;81;24550;-83
2021/12/05 12:54:48;;;;;;;;;;;;;;;4.08;80.85;96962.20;1728240;81;20292;-83
2021/12/05 12:57:23;;;;;;;;;;;;;;;4.04;80.86;96947.31;1740501;80;24858;-83
2021/12/05 13:00:02;;;;;;;;;;;;;;;4.09;80.91;96941.36;1728209;81;22082;-83
2021/12/05 13:11:06;;;;;;;;;;;;;;;4.50;81.11;96936.41;1735505;81;24874;-82
2021/12/05 13:13:33;;;;;;;;;;;;;;;4.59;81.12;96931.88;1741815;81;23579;-83
2021/12/05 13:16:01;;;;;;;;;;;;;;;4.71;81.13;96932.32;1740801;82;26032;-83
2021/12/05 13:18:30;;;;;;;;;;;;;;;4.76;81.11;96936.70;1729110;82;24512;-83
2021/12/05 13:21:04;;;;;;;;;;;;;;;4.81;81.10;96937.67;1733430;80;20498;-82
2021/12/05 13:23:37;;;;;;;;;;;;;;;4.86;81.10;96942.89;1740264;81;24794;-82
2021/12/05 13:26:23;;;;;;;;;;;;;;;4.89;81.08;96945.75;1737284;81;22061;-82
2021/12/05 13:29:01;;;;;;;;;;;;;;;4.81;81.04;96951.47;1738577;81;25994;-82
2021/12/05 13:31:29;;;;;;;;;;;;;;;4.72;80.93;96957.77;1732649;80;25793;-82
2021/12/05 13:34:06;;;;;;;;;;;;;;;4.65;80.85;96956.06;1732688;81;20220;-82
2021/12/05 13:36:37;;;;;;;;;;;;;;;4.57;80.78;96950.61;1622873;86;25033;-82
2021/12/05 13:39:03;;;;;;;;;;;;;;;4.57;80.74;96955.32;1707061;82;22742;-82
2021/12/05 13:41:29;;;;;;;;;;;;;;;4.59;80.70;96954.73;1745322;80;26090;-82
2021/12/05 13:44:01;;;;;;;;;;;;;;;4.57;80.65;96960.97;1737673;82;24537;-82
2021/12/05 13:46:34;;;;;;;;;;;;;;;4.55;80.64;96968.84;1730515;81;20458;-82
2021/12/05 13:49:06;;;;;;;;;;;;;;;4.47;80.63;96964.63;1733233;81;24875;-82
2021/12/05 13:51:31;;;;;;;;;;;;;;;4.40;80.62;96967.31;1733371;80;22203;-82
2021/12/05 13:54:01;;;;;;;;;;;;;;;4.34;80.61;96968.19;1745935;81;26032;-82
2021/12/05 13:56:28;;;;;;;;;;;;;;;4.38;80.65;96963.98;1741643;82;24398;-82
2021/12/05 13:58:56;;;;;;;;;;;;;;;4.46;80.70;96957.83;1728012;81;20240;-83
2021/12/05 14:01:34;;;;;;;;;;;;;;;4.57;80.77;96951.90;1725472;82;25544;-82
2021/12/05 14:04:08;;;;;;;;;;;;;;;4.68;80.83;96969.29;1739456;81;22077;-83
2021/12/05 14:06:39;;;;;;;;;;;;;;;4.74;80.87;96970.16;1747271;82;26055;-83
2021/12/05 14:09:09;;;;;;;;;;;;;;;4.78;80.88;96976.78;1725170;82;20176;-83
2021/12/05 14:11:38;;;;;;;;;;;;;;;4.83;80.89;96982.46;1738049;82;20181;-82
2021/12/05 14:14:07;;;;;;;;;;;;;;;4.84;80.86;96994.03;1737038;81;24850;-82
2021/12/05 14:16:35;;;;;;;;;;;;;;;4.81;80.83;96992.93;1741156;81;22204;-83
2021/12/05 14:19:01;;;;;;;;;;;;;;;4.75;80.83;96995.11;1745672;81;26106;-83
2021/12/05 14:21:30;;;;;;;;;;;;;;;4.71;80.81;97004.04;1716758;82;24967;-83
2021/12/05 14:23:58;;;;;;;;;;;;;;;4.73;80.79;97008.20;1768389;80;20247;-83
2021/12/05 14:26:25;;;;;;;;;;;;;;;4.72;80.74;97010.42;1756011;80;24903;-82
2021/12/05 14:28:59;;;;;;;;;;;;;;;4.72;80.67;97022.55;1763254;80;21888;-82
2021/12/05 14:31:29;;;;;;;;;;;;;;;4.69;80.64;97020.98;1754749;80;26045;-83
2021/12/05 14:33:57;;;;;;;;;;;;;;;4.57;80.60;97012.31;1762746;80;24636;-83
2021/12/05 14:36:25;;;;;;;;;;;;;;;4.47;80.56;97022.11;1757052;80;20299;-83
2021/12/05 14:39:10;;;;;;;;;;;;;;;4.53;80.58;97032.86;1766041;80;25415;-82
2021/12/05 14:41:38;;;;;;;;;;;;;;;4.54;80.58;97039.70;1757322;80;21997;-82
2021/12/05 14:44:04;;;;;;;;;;;;;;;4.55;80.62;97043.96;1761884;80;26088;-82
2021/12/05 14:46:31;;;;;;;;;;;;;;;4.57;80.64;97049.05;1754663;80;25426;-82
2021/12/05 14:48:58;;;;;;;;;;;;;;;4.47;80.60;97046.23;1769888;79;20327;-82
2021/12/05 14:51:31;;;;;;;;;;;;;;;4.35;80.58;97047.55;1766830;80;24795;-83
2021/12/05 14:53:57;;;;;;;;;;;;;;;4.26;80.53;97042.49;1753402;81;22712;-82
2021/12/05 14:56:28;;;;;;;;;;;;;;;4.27;80.55;97041.56;1747432;81;21027;-82
2021/12/05 14:59:09;;;;;;;;;;;;;;;4.31;80.58;97040.42;1758226;81;25277;-82
2021/12/05 15:01:36;;;;;;;;;;;;;;;4.26;80.59;97044.25;1751835;81;20339;-83
2021/12/05 15:04:04;;;;;;;;;;;;;;;4.24;80.64;97027.55;1759940;81;25493;-82
2021/12/05 15:06:39;;;;;;;;;;;;;;;4.40;80.71;97045.47;1754115;80;22024;-83
2021/12/05 15:09:01;;;;;;;;;;;;;;;4.55;80.76;97044.42;1749148;81;26150;-83
2021/12/05 15:11:27;;;;;;;;;;;;;;;4.50;80.79;97036.97;1736426;81;24422;-83
2021/12/05 15:13:55;;;;;;;;;;;;;;;4.43;80.81;97031.84;1734204;81;21169;-83
2021/12/05 15:16:21;;;;;;;;;;;;;;;4.40;80.82;97029.47;1743984;80;24795;-83
2021/12/05 15:18:47;;;;;;;;;;;;;;;4.31;80.83;97022.30;1739887;80;21867;-83
2021/12/05 15:21:13;;;;;;;;;;;;;;;4.23;80.80;97027.17;1731739;82;21815;-83
2021/12/05 15:23:41;;;;;;;;;;;;;;;4.16;80.78;97025.45;1735003;81;25316;-83
2021/12/05 15:26:07;;;;;;;;;;;;;;;4.09;80.77;97019.02;1732770;81;20166;-84
2021/12/05 15:28:35;;;;;;;;;;;;;;;4.04;80.74;97016.38;1740260;81;24985;-83
2021/12/05 15:31:05;;;;;;;;;;;;;;;3.97;80.72;97017.73;1730603;81;22070;-84
2021/12/05 15:33:35;;;;;;;;;;;;;;;3.92;80.71;97021.09;1737997;81;39101;-83
2021/12/05 15:36:02;;;;;;;;;;;;;;;3.87;80.70;97029.16;1740850;81;25237;-83
2021/12/05 15:38:30;;;;;;;;;;;;;;;3.98;80.74;97034.92;1717237;82;20224;-83
2021/12/05 15:40:58;;;;;;;;;;;;;;;4.16;80.80;97035.81;1737990;81;24906;-83
2021/12/05 15:43:26;;;;;;;;;;;;;;;4.37;80.88;97028.83;1746135;80;22106;-82
2021/12/05 15:45:54;;;;;;;;;;;;;;;4.34;80.92;97023.40;1743461;80;25990;-84
2021/12/05 15:48:24;;;;;;;;;;;;;;;4.21;80.93;97026.44;1732908;81;24467;-83
2021/12/05 15:50:52;;;;;;;;;;;;;;;4.12;80.93;97041.30;1741528;81;20215;-83
2021/12/05 15:53:19;;;;;;;;;;;;;;;4.05;80.91;97047.80;1735094;82;25529;-83
2021/12/05 15:55:47;;;;;;;;;;;;;;;4.08;80.92;97046.33;1721806;82;22893;-83
2021/12/05 15:58:19;;;;;;;;;;;;;;;4.18;80.96;97052.09;1736044;80;26663;-84
2021/12/05 16:00:45;;;;;;;;;;;;;;;4.33;81.01;97056.70;1722007;82;24552;-83
2021/12/05 16:03:14;;;;;;;;;;;;;;;4.43;81.05;97062.08;1739916;80;20465;-83
2021/12/05 16:05:44;;;;;;;;;;;;;;;4.47;81.02;97063.56;1745207;80;24827;-83
2021/12/05 16:08:11;;;;;;;;;;;;;;;4.44;81.00;97071.05;1740101;81;22124;-83
2021/12/05 16:10:39;;;;;;;;;;;;;;;4.42;80.97;97072.91;1741303;80;26086;-83
2021/12/05 16:13:10;;;;;;;;;;;;;;;4.39;80.95;97084.78;1741375;80;24323;-83
2021/12/05 16:15:36;;;;;;;;;;;;;;;4.40;80.92;97084.31;1744312;81;20255;-83
2021/12/05 16:18:03;;;;;;;;;;;;;;;4.33;80.89;97092.13;1746142;80;24744;-83
2021/12/05 16:20:49;;;;;;;;;;;;;;;4.26;80.87;97098.63;1746103;80;21991;-82
2021/12/05 16:23:20;;;;;;;;;;;;;;;4.27;80.88;97090.77;1738441;81;26321;-83
2021/12/05 16:25:51;;;;;;;;;;;;;;;4.24;80.88;97087.09;1733631;81;24454;-83
2021/12/05 16:28:19;;;;;;;;;;;;;;;4.18;80.86;97079.73;1739826;81;20480;-83
2021/12/05 16:30:46;;;;;;;;;;;;;;;4.12;80.85;97080.97;1736330;81;24795;-83
2021/12/05 16:33:14;;;;;;;;;;;;;;;4.08;80.82;97089.87;1727100;80;22021;-83
2021/12/05 16:35:43;;;;;;;;;;;;;;;4.07;80.85;97083.03;1749328;80;26104;-83
2021/12/05 16:38:26;;;;;;;;;;;;;;;3.99;80.83;97072.33;1736803;80;24639;-84
2021/12/05 16:40:54;;;;;;;;;;;;;;;4.03;80.83;97079.45;1738628;81;20322;-83
2021/12/05 16:43:20;;;;;;;;;;;;;;;4.18;80.87;97068.08;1740331;82;24858;-83
2021/12/05 16:45:46;;;;;;;;;;;;;;;4.24;80.94;97075.45;1745146;80;22046;-83
2021/12/05 16:48:14;;;;;;;;;;;;;;;4.28;80.96;97073.47;1748122;81;26041;-83
2021/12/05 16:50:41;;;;;;;;;;;;;;;4.35;81.05;97080.74;1746793;81;25116;-82
2021/12/05 16:53:07;;;;;;;;;;;;;;;4.39;81.08;97074.88;1744040;81;20245;-83
2021/12/05 16:55:41;;;;;;;;;;;;;;;4.29;81.09;97068.66;1765560;80;24738;-81
2021/12/05 16:58:16;;;;;;;;;;;;;;;4.21;81.08;97083.40;1756945;81;22177;-82
2021/12/05 17:00:39;;;;;;;;;;;;;;;4.15;81.06;97079.45;1744736;80;26465;-83
2021/12/05 17:03:07;;;;;;;;;;;;;;;4.13;81.04;97088.27;1756161;80;24572;-83
2021/12/05 17:05:38;;;;;;;;;;;;;;;4.30;81.05;97084.56;1749641;81;20353;-83
2021/12/05 17:08:13;;;;;;;;;;;;;;;4.41;81.08;97084.23;1743256;80;24624;-83
2021/12/05 17:10:42;;;;;;;;;;;;;;;4.48;81.08;97085.45;1751624;81;22048;-83
2021/12/05 17:13:13;;;;;;;;;;;;;;;4.50;81.10;97093.96;1758323;81;25990;-83
2021/12/05 17:15:50;;;;;;;;;;;;;;;4.41;81.10;97091.16;1754667;80;24571;-83
2021/12/05 17:18:18;;;;;;;;;;;;;;;4.35;81.11;97093.69;1756658;81;20171;-84
2021/12/05 17:20:46;;;;;;;;;;;;;;;4.45;81.09;97090.02;1754894;81;25774;-83
2021/12/05 17:23:14;;;;;;;;;;;;;;;4.57;81.08;97099.10;1755716;80;22082;-84
2021/12/05 17:25:41;;;;;;;;;;;;;;;4.63;81.10;97093.98;1711662;82;26096;-83
2021/12/05 17:28:09;;;;;;;;;;;;;;;4.53;81.02;97091.15;1731287;82;24676;-83
2021/12/05 17:30:36;;;;;;;;;;;;;;;4.36;80.99;97083.70;1741913;81;20236;-83
2021/12/05 17:33:02;;;;;;;;;;;;;;;4.27;80.91;97091.23;1745737;82;24824;-84
2021/12/05 17:35:29;;;;;;;;;;;;;;;4.33;80.90;97085.65;1750556;81;21993;-84
2021/12/05 17:37:56;;;;;;;;;;;;;;;4.26;80.86;97082.63;1770904;79;26131;-84
2021/12/05 17:40:22;;;;;;;;;;;;;;;4.21;80.85;97081.64;1758002;81;25100;-83
2021/12/05 17:42:48;;;;;;;;;;;;;;;4.20;80.85;97083.03;1750341;81;20325;-83
2021/12/05 17:45:15;;;;;;;;;;;;;;;4.08;80.83;97087.74;1740384;82;24134;-83
2021/12/05 17:47:44;;;;;;;;;;;;;;;3.97;80.79;97097.50;1740435;82;22064;-83
2021/12/05 17:50:12;;;;;;;;;;;;;;;3.89;80.76;97102.78;1741703;81;26885;-84
2021/12/05 17:52:38;;;;;;;;;;;;;;;3.81;80.73;97107.18;1748676;81;25269;-83
2021/12/05 17:55:13;;;;;;;;;;;;;;;3.88;80.74;97112.77;1752436;81;20253;-83
2021/12/05 17:57:53;;;;;;;;;;;;;;;4.05;80.80;97113.81;1758846;81;24743;-83
2021/12/05 18:00:15;;;;;;;;;;;;;;;4.11;80.85;97118.59;1754044;81;22087;-83
2021/12/05 18:05:11;;;;;;;;;;;;;;;4.00;80.83;97136.11;1750300;81;24447;-83
2021/12/05 18:07:37;;;;;;;;;;;;;;;3.91;80.81;97142.34;1724636;80;20297;-83
2021/12/05 18:10:04;;;;;;;;;;;;;;;3.85;80.75;97147.91;1757686;80;25640;-83
2021/12/05 18:12:35;;;;;;;;;;;;;;;3.84;80.77;97154.84;1750225;81;21950;-83